Time;durP1;ratioP1;P1;durP2;ratioP2;P2;SDS_P1;SDS_P2;PMS_P1;PMS_P2;Temp;Humidity;BMP_temperature;BMP_pressure;BME280_temperature;BME280_humidity;BME280_pressure;Samples;Min_cycle;Max_cycle;Signal;HPM_P1;HPM_P2
2022/05/16 00:01:44;;;;;;;9.93;4.20;;;20.60;44.90;;;;;;5113869;28;20089;-67
2022/05/16 00:04:09;;;;;;;8.07;3.67;;;20.60;44.90;;;;;;5113811;28;20020;-67
2022/05/16 00:06:35;;;;;;;8.85;3.67;;;20.50;44.70;;;;;;5112865;28;20081;-68
2022/05/16 00:09:01;;;;;;;10.30;4.15;;;20.50;44.80;;;;;;5113761;28;20032;-68
2022/05/16 00:11:26;;;;;;;8.95;3.97;;;20.50;45.10;;;;;;5113705;28;20044;-68
2022/05/16 00:13:52;;;;;;;9.73;3.80;;;20.50;44.50;;;;;;5113663;28;20032;-68
2022/05/16 00:16:18;;;;;;;10.02;4.55;;;20.40;44.70;;;;;;5113751;28;20040;-68
2022/05/16 00:18:43;;;;;;;10.85;4.05;;;20.40;45.20;;;;;;5112461;28;20058;-68
2022/05/16 00:21:09;;;;;;;9.63;4.00;;;20.30;45.90;;;;;;5113479;28;20039;-68
2022/05/16 00:23:35;;;;;;;7.50;4.30;;;20.30;45.40;;;;;;5112532;28;20036;-68
2022/05/16 00:26:00;;;;;;;8.90;3.97;;;20.20;45.40;;;;;;5113535;28;20031;-68
2022/05/16 00:28:26;;;;;;;7.60;3.72;;;20.20;45.20;;;;;;5113450;28;20035;-68
2022/05/16 00:30:52;;;;;;;7.63;4.03;;;20.20;45.40;;;;;;5113469;28;20032;-68
2022/05/16 00:33:17;;;;;;;9.18;4.60;;;20.20;45.50;;;;;;5113429;28;20042;-68
2022/05/16 00:35:43;;;;;;;7.10;3.55;;;20.10;45.50;;;;;;5113402;28;20055;-68
2022/05/16 00:38:09;;;;;;;7.85;4.00;;;20.00;46.00;;;;;;5113329;28;20028;-68
2022/05/16 00:40:34;;;;;;;7.05;3.75;;;20.10;46.20;;;;;;5113373;28;20031;-68
2022/05/16 00:43:06;;;;;;;7.22;3.80;;;20.10;46.30;;;;;;5113360;28;20024;-68
2022/05/16 00:45:32;;;;;;;6.87;4.03;;;20.10;46.30;;;;;;5113418;28;20028;-68
2022/05/16 00:47:58;;;;;;;9.48;4.38;;;20.10;46.50;;;;;;5116456;28;20023;-68
2022/05/16 00:50:25;;;;;;;9.80;3.78;;;20.00;46.60;;;;;;5117655;28;20107;-68
2022/05/16 00:52:51;;;;;;;9.25;4.07;;;20.00;46.90;;;;;;5117498;28;20029;-68
2022/05/16 00:55:24;;;;;;;7.57;3.55;;;20.00;46.90;;;;;;5117435;28;20031;-67
2022/05/16 00:57:53;;;;;;;;;;;20.00;46.70;;;;;;5117780;28;20020;-68
2022/05/16 01:00:23;;;;;;;7.32;3.83;;;19.90;46.40;;;;;;5117352;28;19904;-67
2022/05/16 01:05:38;;;;;;;7.20;3.50;;;19.80;47.30;;;;;;5117389;28;20038;-67
2022/05/16 01:08:13;;;;;;;9.05;3.75;;;19.80;47.50;;;;;;5117170;28;20032;-67
2022/05/16 01:10:39;;;;;;;9.40;3.60;;;19.80;47.80;;;;;;5117188;28;20039;-67
2022/05/16 01:13:06;;;;;;;8.52;4.00;;;19.80;47.80;;;;;;5117133;28;20024;-67
2022/05/16 01:15:38;;;;;;;10.32;4.40;;;19.80;47.60;;;;;;5117064;28;20088;-67
2022/05/16 01:18:09;;;;;;;7.28;3.90;;;19.80;47.60;;;;;;5116992;28;20024;-67
2022/05/16 01:21:06;;;;;;;10.43;4.32;;;19.70;47.80;;;;;;5116980;28;20017;-67
2022/05/16 01:23:37;;;;;;;11.43;4.28;;;19.70;47.50;;;;;;5117088;28;20091;-68
2022/05/16 01:26:07;;;;;;;9.40;4.28;;;19.70;48.20;;;;;;5116907;28;20387;-68
2022/05/16 01:28:33;;;;;;;9.57;3.95;;;19.70;48.10;;;;;;5116739;28;20076;-67
2022/05/16 01:30:58;;;;;;;8.15;4.45;;;19.70;48.40;;;;;;5116708;28;20028;-68
2022/05/16 01:33:25;;;;;;;11.45;4.68;;;19.70;48.50;;;;;;5116729;28;20077;-67
2022/05/16 01:35:51;;;;;;;7.00;3.90;;;19.60;48.40;;;;;;5116664;28;20024;-68
2022/05/16 01:38:26;;;;;;;10.75;4.25;;;19.60;48.50;;;;;;5116565;28;20025;-67
2022/05/16 01:40:59;;;;;;;9.27;4.63;;;19.60;49.80;;;;;;5116609;28;20101;-68
2022/05/16 01:43:28;;;;;;;7.82;4.45;;;19.60;48.80;;;;;;5116511;28;20462;-67
2022/05/16 01:45:55;;;;;;;9.30;4.70;;;19.50;49.80;;;;;;5116530;28;20046;-68
2022/05/16 01:48:21;;;;;;;7.85;4.55;;;19.50;49.40;;;;;;5116475;28;20049;-67
2022/05/16 01:50:48;;;;;;;8.18;4.93;;;19.40;49.40;;;;;;5116385;28;20020;-67
2022/05/16 01:53:14;;;;;;;6.38;4.13;;;19.50;49.60;;;;;;5116335;28;20035;-67
2022/05/16 01:55:40;;;;;;;7.75;4.75;;;19.50;49.60;;;;;;5116320;28;20024;-68
2022/05/16 01:58:07;;;;;;;11.02;4.53;;;19.40;49.60;;;;;;5115128;28;20035;-67
2022/05/16 02:00:33;;;;;;;9.85;4.93;;;19.40;49.50;;;;;;5115127;28;20028;-67
2022/05/16 02:03:00;;;;;;;9.65;4.60;;;19.40;49.90;;;;;;5116114;28;20368;-68
2022/05/16 02:05:25;;;;;;;6.38;4.65;;;19.40;50.30;;;;;;5116124;28;20043;-68
2022/05/16 02:07:51;;;;;;;7.90;4.80;;;19.40;50.20;;;;;;5114955;28;20013;-68
2022/05/16 02:10:21;;;;;;;11.55;4.97;;;19.40;50.00;;;;;;5115981;28;20054;-67
2022/05/16 02:12:47;;;;;;;10.93;4.82;;;19.30;49.90;;;;;;5116054;28;20044;-67
2022/05/16 02:15:16;;;;;;;9.45;4.68;;;19.30;49.90;;;;;;5114957;28;20034;-68
2022/05/16 02:17:42;;;;;;;10.85;4.85;;;19.20;50.40;;;;;;5114846;28;20020;-67
2022/05/16 02:20:09;;;;;;;10.30;5.07;;;19.20;50.80;;;;;;5115856;28;20039;-67
2022/05/16 02:25:19;;;;;;;12.02;5.35;;;19.10;50.80;;;;;;5115108;28;20047;-68
2022/05/16 02:27:46;;;;;;;11.55;5.60;;;19.10;50.60;;;;;;5115597;28;20394;-67
2022/05/16 02:30:12;;;;;;;8.93;4.53;;;19.10;50.60;;;;;;5115604;28;20024;-67
2022/05/16 02:32:38;;;;;;;9.57;4.30;;;19.10;50.30;;;;;;5115712;28;20035;-68
2022/05/16 02:35:05;;;;;;;10.10;4.80;;;19.10;50.70;;;;;;5115495;28;20028;-67
2022/05/16 02:37:31;;;;;;;9.13;4.95;;;19.00;50.70;;;;;;5115562;28;20047;-67
2022/05/16 02:39:56;;;;;;;7.60;4.75;;;19.10;51.40;;;;;;5115467;28;20063;-68
2022/05/16 02:42:22;;;;;;;9.95;4.78;;;19.10;51.70;;;;;;5115388;28;20028;-67
2022/05/16 02:44:48;;;;;;;10.73;4.68;;;19.10;51.50;;;;;;5115374;28;20024;-67
2022/05/16 02:47:16;;;;;;;8.98;4.53;;;19.10;51.80;;;;;;5115287;28;20032;-68
2022/05/16 02:49:42;;;;;;;8.32;4.63;;;19.10;51.40;;;;;;5115201;28;20084;-67
2022/05/16 02:52:08;;;;;;;10.05;4.60;;;19.10;51.40;;;;;;5114136;28;20032;-68
2022/05/16 02:54:34;;;;;;;10.95;4.95;;;19.00;52.10;;;;;;5115101;28;20034;-68
2022/05/16 02:57:00;;;;;;;9.18;4.22;;;19.00;52.50;;;;;;5115123;28;20083;-67
2022/05/16 02:59:27;;;;;;;9.27;4.80;;;19.00;53.40;;;;;;5115006;28;20088;-67
2022/05/16 03:01:53;;;;;;;10.55;4.72;;;19.00;52.50;;;;;;5114998;28;20071;-67
2022/05/16 03:04:20;;;;;;;7.10;4.70;;;18.90;52.40;;;;;;5113954;28;20096;-67
2022/05/16 03:06:45;;;;;;;8.23;4.47;;;18.90;52.50;;;;;;5114932;28;20039;-67
2022/05/16 03:09:11;;;;;;;10.73;4.63;;;18.90;52.50;;;;;;5113598;28;20028;-67
2022/05/16 03:11:37;;;;;;;11.00;5.20;;;18.90;52.40;;;;;;5114858;28;20051;-67
2022/05/16 03:14:03;;;;;;;10.15;5.53;;;18.90;52.50;;;;;;5113811;28;20020;-68
2022/05/16 03:16:29;;;;;;;10.25;4.90;;;18.90;52.80;;;;;;5114724;28;20039;-67
2022/05/16 03:18:55;;;;;;;10.00;5.35;;;18.80;52.70;;;;;;5114627;28;20028;-68
2022/05/16 03:21:22;;;;;;;8.48;5.10;;;18.80;52.70;;;;;;5114517;28;20120;-67
2022/05/16 03:23:48;;;;;;;9.07;4.82;;;18.80;52.90;;;;;;5114577;28;20016;-67
2022/05/16 03:26:14;;;;;;;11.80;5.38;;;18.80;53.00;;;;;;5114538;28;20026;-67
2022/05/16 03:28:39;;;;;;;8.68;5.75;;;18.80;53.00;;;;;;5114403;28;20122;-67
2022/05/16 03:31:05;;;;;;;11.35;5.28;;;18.70;53.10;;;;;;5114455;28;20083;-67
2022/05/16 03:33:30;;;;;;;12.32;5.70;;;18.70;53.00;;;;;;5114395;28;20032;-67
2022/05/16 03:35:58;;;;;;;9.82;5.15;;;18.70;53.60;;;;;;5114357;28;20028;-67
2022/05/16 03:41:13;;;;;;;10.88;5.55;;;18.70;53.60;;;;;;5114479;28;20429;-67
2022/05/16 03:43:40;;;;;;;10.05;5.32;;;18.60;53.50;;;;;;5113243;28;20023;-68
2022/05/16 03:46:07;;;;;;;9.43;5.50;;;18.50;54.80;;;;;;5114196;28;20020;-67
2022/05/16 03:48:34;;;;;;;12.00;5.57;;;18.50;54.20;;;;;;5114256;28;20027;-67
2022/05/16 03:51:01;;;;;;;10.55;5.70;;;18.50;53.80;;;;;;5114203;28;20024;-68
2022/05/16 03:53:27;;;;;;;12.57;5.47;;;18.40;54.20;;;;;;5114049;28;20039;-67
2022/05/16 03:55:52;;;;;;;9.40;5.60;;;18.40;54.50;;;;;;5113835;28;20036;-67
2022/05/16 03:58:18;;;;;;;17.08;5.80;;;18.30;54.90;;;;;;5113878;28;20032;-67
2022/05/16 04:00:44;;;;;;;12.98;5.90;;;18.20;55.10;;;;;;5113900;28;20036;-67
2022/05/16 04:03:10;;;;;;;10.52;5.38;;;18.20;55.20;;;;;;5114002;28;20072;-67
2022/05/16 04:05:36;;;;;;;10.07;5.60;;;18.10;55.30;;;;;;5113813;28;20062;-67
2022/05/16 04:08:03;;;;;;;13.52;6.18;;;18.10;55.60;;;;;;5113813;28;20424;-67
2022/05/16 04:10:28;;;;;;;12.07;5.38;;;18.10;55.80;;;;;;5113749;28;20045;-67
2022/05/16 04:12:54;;;;;;;8.95;5.00;;;18.10;55.70;;;;;;5113733;28;20081;-67
2022/05/16 04:15:21;;;;;;;10.60;5.60;;;18.10;55.80;;;;;;5113807;28;20040;-67
2022/05/16 04:17:48;;;;;;;10.35;5.32;;;18.10;55.80;;;;;;5113695;28;20021;-67
2022/05/16 04:20:14;;;;;;;10.00;5.72;;;18.00;55.80;;;;;;5113577;28;20031;-67
2022/05/16 04:22:41;;;;;;;12.63;5.65;;;18.00;56.10;;;;;;5112861;28;20032;-67
2022/05/16 04:25:10;;;;;;;9.68;5.30;;;18.00;56.30;;;;;;5113584;28;20020;-67
2022/05/16 04:27:35;;;;;;;11.23;5.97;;;18.00;56.20;;;;;;5113481;28;20033;-67
2022/05/16 04:30:01;;;;;;;11.10;6.00;;;18.10;56.10;;;;;;5113478;28;20028;-67
2022/05/16 04:32:26;;;;;;;9.63;5.43;;;18.00;56.30;;;;;;5113406;28;20043;-67
2022/05/16 04:34:52;;;;;;;8.80;5.90;;;18.00;56.40;;;;;;5112460;28;20036;-67
2022/05/16 04:37:18;;;;;;;11.77;5.85;;;18.00;56.80;;;;;;5113279;28;20028;-67
2022/05/16 04:39:43;;;;;;;11.23;5.38;;;18.00;56.90;;;;;;5113189;28;20086;-67
2022/05/16 04:44:54;;;;;;;11.57;5.55;;;18.00;56.90;;;;;;5113621;28;20027;-67
2022/05/16 04:47:19;;;;;;;9.75;5.45;;;18.00;57.20;;;;;;5112358;28;20020;-67
2022/05/16 04:49:45;;;;;;;9.32;5.72;;;18.00;57.10;;;;;;5113283;28;20048;-68
2022/05/16 04:52:11;;;;;;;9.55;5.80;;;18.00;57.10;;;;;;5112206;28;20036;-67
2022/05/16 04:54:38;;;;;;;11.77;6.25;;;18.00;57.30;;;;;;5113266;28;20031;-67
2022/05/16 04:57:04;;;;;;;11.98;6.32;;;18.00;57.50;;;;;;5112192;28;20032;-67
2022/05/16 04:59:30;;;;;;;11.30;6.40;;;18.00;57.90;;;;;;5113126;28;20020;-67
2022/05/16 05:01:55;;;;;;;8.88;5.95;;;18.00;57.80;;;;;;5112122;28;20088;-67
2022/05/16 05:04:21;;;;;;;11.40;6.30;;;18.00;57.60;;;;;;5112104;28;20020;-67
2022/05/16 05:06:48;;;;;;;11.02;6.75;;;18.10;57.70;;;;;;5113118;28;20081;-67
2022/05/16 05:09:13;;;;;;;12.13;6.68;;;18.10;57.50;;;;;;5113117;28;20054;-67
2022/05/16 05:14:32;;;;;;;11.90;6.93;;;18.10;57.60;;;;;;5113291;28;20043;-67
2022/05/16 05:16:58;;;;;;;11.15;6.82;;;18.20;57.90;;;;;;5112151;28;20048;-68
2022/05/16 05:19:24;;;;;;;11.50;6.63;;;18.20;58.20;;;;;;5111889;28;20048;-67
2022/05/16 05:21:50;;;;;;;12.43;7.00;;;18.20;57.90;;;;;;5112851;28;20052;-68
2022/05/16 05:24:16;;;;;;;9.27;6.55;;;18.20;58.00;;;;;;5113084;28;20029;-68
2022/05/16 05:26:43;;;;;;;12.48;7.07;;;18.20;58.10;;;;;;5112992;28;20080;-68
2022/05/16 05:29:11;;;;;;;11.10;6.63;;;18.30;58.30;;;;;;5112878;28;20055;-68
2022/05/16 05:31:37;;;;;;;11.20;6.63;;;18.30;58.10;;;;;;5112943;28;20031;-68
2022/05/16 05:34:03;;;;;;;11.18;6.60;;;18.30;58.30;;;;;;5115860;28;20020;-68
2022/05/16 05:36:29;;;;;;;14.10;6.93;;;18.40;58.00;;;;;;5116612;28;20106;-68
2022/05/16 05:38:57;;;;;;;10.35;6.57;;;18.50;58.20;;;;;;5116681;28;20032;-68
2022/05/16 05:41:23;;;;;;;11.77;6.55;;;18.50;58.00;;;;;;5116622;28;20447;-68
2022/05/16 05:43:49;;;;;;;10.70;7.90;;;18.60;57.80;;;;;;5115533;28;20024;-68
2022/05/16 05:46:16;;;;;;;11.45;7.15;;;18.60;57.80;;;;;;5116446;28;20051;-68
2022/05/16 05:48:42;;;;;;;13.10;7.97;;;18.60;58.20;;;;;;5116453;28;20054;-68
2022/05/16 05:51:08;;;;;;;12.90;7.63;;;18.60;58.00;;;;;;5116406;28;20024;-68
2022/05/16 05:53:37;;;;;;;14.18;7.72;;;18.70;58.10;;;;;;5116358;28;20035;-68
2022/05/16 05:56:05;;;;;;;13.95;7.93;;;18.70;58.40;;;;;;5116336;28;20027;-68
2022/05/16 05:58:32;;;;;;;13.43;7.93;;;18.70;58.30;;;;;;5116262;28;20076;-68
2022/05/16 06:00:59;;;;;;;10.57;8.30;;;18.70;58.50;;;;;;5116256;28;20028;-67
2022/05/16 06:03:25;;;;;;;11.95;7.32;;;18.80;58.70;;;;;;5116178;28;20076;-68
2022/05/16 06:05:51;;;;;;;11.27;7.65;;;18.80;58.20;;;;;;5116061;28;20028;-68
2022/05/16 06:08:17;;;;;;;14.60;7.60;;;18.80;58.40;;;;;;5116086;28;20558;-68
2022/05/16 06:10:43;;;;;;;11.90;7.00;;;18.90;58.20;;;;;;5115029;28;20035;-68
2022/05/16 06:13:08;;;;;;;12.00;7.45;;;18.90;58.40;;;;;;5114910;28;20020;-68
2022/05/16 06:15:34;;;;;;;13.43;7.93;;;18.90;58.60;;;;;;5115952;28;20034;-67
2022/05/16 06:18:00;;;;;;;12.73;7.93;;;18.90;58.70;;;;;;5115776;28;20024;-68
2022/05/16 06:20:27;;;;;;;12.68;7.72;;;18.90;58.60;;;;;;5115835;28;20024;-68
2022/05/16 06:22:54;;;;;;;9.82;7.25;;;19.00;58.50;;;;;;5115494;28;20036;-68
2022/05/16 06:25:33;;;;;;;11.68;7.30;;;19.10;58.70;;;;;;5115737;28;20100;-68
2022/05/16 06:28:09;;;;;;;14.27;7.35;;;19.10;58.30;;;;;;5115773;28;20020;-68
2022/05/16 06:30:36;;;;;;;10.75;7.10;;;19.20;58.30;;;;;;5115622;28;20028;-67
2022/05/16 06:33:02;;;;;;;9.75;6.45;;;19.20;59.40;;;;;;5115600;28;20016;-68
2022/05/16 06:35:28;;;;;;;12.95;6.57;;;19.20;58.60;;;;;;5115702;28;20028;-68
2022/05/16 06:37:54;;;;;;;14.20;7.00;;;19.20;58.70;;;;;;5115536;28;20395;-67
2022/05/16 06:40:21;;;;;;;11.30;6.50;;;19.30;58.70;;;;;;5115455;28;20032;-68
2022/05/16 06:42:46;;;;;;;11.25;7.00;;;19.30;58.70;;;;;;5115437;28;20072;-68
2022/05/16 06:45:14;;;;;;;12.57;7.18;;;19.30;59.40;;;;;;5114789;28;20021;-68
2022/05/16 06:47:40;;;;;;;10.38;6.88;;;19.40;60.10;;;;;;5115311;28;20020;-68
2022/05/16 06:50:06;;;;;;;12.90;7.13;;;19.30;60.50;;;;;;5115239;28;20073;-68
2022/05/16 06:52:32;;;;;;;12.07;7.13;;;19.40;60.70;;;;;;5114298;28;20390;-68
2022/05/16 06:54:58;;;;;;;10.70;7.30;;;19.40;60.20;;;;;;5115284;28;20036;-68
2022/05/16 06:57:23;;;;;;;14.00;7.38;;;19.40;60.60;;;;;;5115116;28;20092;-68
2022/05/16 06:59:49;;;;;;;9.07;7.10;;;19.40;60.40;;;;;;5115004;28;20039;-68
2022/05/16 07:02:15;;;;;;;12.30;7.18;;;19.50;60.50;;;;;;5115034;28;20029;-67
2022/05/16 07:04:41;;;;;;;10.95;7.95;;;19.60;60.50;;;;;;5114969;28;20088;-68
2022/05/16 07:07:10;;;;;;;12.70;7.90;;;19.70;61.70;;;;;;5114954;28;20028;-68
2022/05/16 07:09:38;;;;;;;14.60;8.63;;;19.60;60.70;;;;;;5114896;28;20083;-68
2022/05/16 07:12:05;;;;;;;11.50;8.40;;;19.70;60.90;;;;;;5114814;28;20025;-68
2022/05/16 07:14:31;;;;;;;11.63;7.40;;;19.70;60.70;;;;;;5114720;28;20032;-68
2022/05/16 07:16:56;;;;;;;13.38;8.55;;;19.80;60.00;;;;;;5114683;28;20028;-68
2022/05/16 07:19:22;;;;;;;10.18;7.47;;;19.90;61.10;;;;;;5114598;28;20115;-68
2022/05/16 07:21:48;;;;;;;15.05;7.75;;;19.90;59.90;;;;;;5114640;28;20070;-68
2022/05/16 07:24:13;;;;;;;11.40;6.70;;;20.00;60.10;;;;;;5114717;28;20016;-68
2022/05/16 07:29:23;;;;;;;12.00;7.47;;;20.10;59.20;;;;;;5114552;28;20058;-68
2022/05/16 07:31:51;;;;;;;11.88;6.97;;;20.20;58.60;;;;;;5114517;28;20036;-68
2022/05/16 07:34:17;;;;;;;11.48;7.30;;;20.20;58.80;;;;;;5114386;28;20027;-68
2022/05/16 07:36:42;;;;;;;13.95;7.30;;;20.20;58.60;;;;;;5114341;28;20032;-68
2022/05/16 07:39:08;;;;;;;9.77;7.00;;;20.20;59.00;;;;;;5114251;28;20025;-68
2022/05/16 07:41:34;;;;;;;8.75;6.22;;;20.30;59.30;;;;;;5114273;28;20035;-68
2022/05/16 07:43:59;;;;;;;10.48;6.45;;;20.20;59.60;;;;;;5114270;28;20071;-68
2022/05/16 07:46:25;;;;;;;10.10;6.15;;;20.30;58.30;;;;;;5114191;28;20020;-68
2022/05/16 07:48:51;;;;;;;12.75;6.70;;;20.40;57.40;;;;;;5114158;28;20087;-68
2022/05/16 07:51:16;;;;;;;10.70;6.25;;;20.30;58.00;;;;;;5114052;28;20066;-68
2022/05/16 07:53:42;;;;;;;10.40;6.65;;;20.40;58.70;;;;;;5114162;28;20028;-68
2022/05/16 07:56:11;;;;;;;10.68;6.20;;;20.40;58.10;;;;;;5113234;28;20059;-68
2022/05/16 07:58:37;;;;;;;12.95;6.03;;;20.40;58.30;;;;;;5113940;28;20050;-68
2022/05/16 08:01:03;;;;;;;9.18;6.35;;;20.50;58.40;;;;;;5113898;28;20020;-68
2022/05/16 08:03:30;;;;;;;13.00;6.10;;;20.50;57.60;;;;;;5112853;28;20028;-68
2022/05/16 08:05:57;;;;;;;13.60;6.25;;;20.50;57.90;;;;;;5113865;28;20020;-68
2022/05/16 08:11:12;;;;;;;13.35;6.95;;;20.60;57.60;;;;;;5114057;28;20057;-68
2022/05/16 08:13:38;;;;;;;11.98;6.72;;;20.60;57.70;;;;;;5113780;28;20050;-68
2022/05/16 08:16:04;;;;;;;12.88;6.78;;;20.70;58.50;;;;;;5113730;28;20052;-68
2022/05/16 08:18:30;;;;;;;16.23;6.45;;;20.70;58.20;;;;;;5113637;28;20031;-68
2022/05/16 08:20:56;;;;;;;10.23;6.80;;;20.70;58.70;;;;;;5112682;28;20495;-68
2022/05/16 08:23:27;;;;;;;11.25;6.13;;;20.80;58.30;;;;;;5113457;28;20044;-68
2022/05/16 08:26:01;;;;;;;12.50;6.78;;;20.90;58.60;;;;;;5113575;28;20020;-68
2022/05/16 08:28:27;;;;;;;12.27;6.35;;;20.90;59.50;;;;;;5113510;28;20020;-68
2022/05/16 08:30:53;;;;;;;15.73;6.70;;;21.00;59.20;;;;;;5113645;28;20053;-68
2022/05/16 08:33:18;;;;;;;11.23;6.80;;;21.00;59.00;;;;;;5113522;28;20024;-68
2022/05/16 08:35:44;;;;;;;13.70;7.03;;;21.10;58.40;;;;;;5113581;28;20028;-68
2022/05/16 08:40:54;;;;;;;12.25;6.30;;;21.10;58.30;;;;;;5113624;28;20054;-68
2022/05/16 08:43:45;;;;;;;11.70;6.43;;;21.10;58.50;;;;;;5113366;28;20079;-68
2022/05/16 08:46:34;;;;;;;18.05;7.47;;;21.20;58.30;;;;;;5113356;28;20077;-68
2022/05/16 08:49:16;;;;;;;15.98;7.32;;;21.20;58.10;;;;;;5113335;28;20031;-68
2022/05/16 08:51:45;;;;;;;16.23;7.35;;;21.20;58.40;;;;;;5113384;28;20548;-68
2022/05/16 08:54:30;;;;;;;15.00;7.90;;;21.20;57.20;;;;;;5113377;28;20016;-68
2022/05/16 08:56:59;;;;;;;12.60;6.82;;;21.20;58.60;;;;;;5113425;28;20038;-68
2022/05/16 08:59:26;;;;;;;13.57;7.50;;;21.30;57.80;;;;;;5113163;28;20032;-68
2022/05/16 09:01:56;;;;;;;16.10;7.55;;;21.30;58.40;;;;;;5113257;28;20070;-68
2022/05/16 09:04:47;;;;;;;12.40;7.53;;;21.40;57.70;;;;;;5113230;28;20024;-68
2022/05/16 09:07:26;;;;;;;17.20;7.35;;;21.40;58.80;;;;;;5113178;28;20073;-68
2022/05/16 09:10:09;;;;;;;15.52;7.60;;;21.50;58.20;;;;;;5117316;28;20020;-68
2022/05/16 09:12:40;;;;;;;11.82;8.15;;;21.60;59.30;;;;;;5117224;28;20031;-68
2022/05/16 09:15:11;;;;;;;12.20;8.20;;;21.80;58.10;;;;;;5117296;28;20028;-68
2022/05/16 09:17:55;;;;;;;13.38;7.78;;;21.90;57.50;;;;;;5117157;28;20273;-68
2022/05/16 09:20:44;;;;;;;13.57;7.00;;;22.00;57.40;;;;;;5116951;28;20028;-68
2022/05/16 09:23:37;;;;;;;12.80;7.10;;;22.10;55.50;;;;;;5115743;28;20050;-68
2022/05/16 09:26:45;;;;;;;12.70;7.65;;;22.20;55.50;;;;;;5117091;28;20083;-68
2022/05/16 09:29:22;;;;;;;12.55;7.63;;;22.30;56.00;;;;;;5105955;28;20036;-68
2022/05/16 09:31:49;;;;;;;15.02;6.97;;;22.20;56.40;;;;;;5116852;28;20386;-68
2022/05/16 09:34:15;;;;;;;15.13;7.35;;;22.30;56.20;;;;;;5116903;28;20070;-68
2022/05/16 09:36:45;;;;;;;16.08;8.15;;;22.40;56.30;;;;;;5116751;28;20024;-68
2022/05/16 09:39:16;;;;;;;17.23;7.30;;;22.60;55.40;;;;;;5116756;28;20039;-68
2022/05/16 09:41:48;;;;;;;9.80;7.65;;;22.80;56.70;;;;;;5116672;28;20028;-68
2022/05/16 09:44:32;;;;;;;11.48;7.40;;;22.80;55.60;;;;;;5116502;28;20024;-68
2022/05/16 09:47:22;;;;;;;16.80;6.97;;;23.00;56.10;;;;;;5116639;28;20042;-68
2022/05/16 09:50:14;;;;;;;13.45;7.70;;;23.20;56.10;;;;;;5116515;28;20020;-68
2022/05/16 09:53:07;;;;;;;14.30;7.90;;;23.30;54.70;;;;;;5116406;28;20035;-68
2022/05/16 09:55:58;;;;;;;12.13;7.50;;;23.40;54.20;;;;;;5103379;28;20092;-68
2022/05/16 09:58:49;;;;;;;13.23;7.80;;;23.60;55.10;;;;;;5116218;28;20154;-68
2022/05/16 10:01:28;;;;;;;12.35;6.25;;;23.70;53.80;;;;;;5116317;28;20031;-68
2022/05/16 10:03:54;;;;;;;9.88;5.97;;;23.70;53.10;;;;;;5116233;28;20028;-68
2022/05/16 10:06:32;;;;;;;10.43;5.93;;;23.80;54.50;;;;;;5116129;28;20028;-68
2022/05/16 10:09:11;;;;;;;13.93;6.82;;;24.00;53.60;;;;;;5116130;28;20020;-68
2022/05/16 10:11:38;;;;;;;8.25;6.18;;;24.10;53.50;;;;;;5116126;28;20020;-68
2022/05/16 10:14:05;;;;;;;12.38;6.15;;;24.20;52.00;;;;;;5116000;28;20044;-68
2022/05/16 10:16:32;;;;;;;14.38;5.90;;;24.30;54.30;;;;;;5115924;28;20032;-68
2022/05/16 10:19:03;;;;;;;10.38;5.65;;;24.50;52.70;;;;;;5115193;28;20399;-68
2022/05/16 10:21:54;;;;;;;9.23;5.03;;;24.50;50.30;;;;;;5115550;28;20071;-69
2022/05/16 10:24:23;;;;;;;9.70;5.38;;;24.70;52.00;;;;;;5105907;28;20050;-68
2022/05/16 10:26:51;;;;;;;10.15;5.40;;;24.80;51.90;;;;;;5115811;28;20020;-68
2022/05/16 10:29:23;;;;;;;8.65;5.65;;;24.80;50.50;;;;;;5115669;28;20028;-68
2022/05/16 10:34:41;;;;;;;9.18;5.53;;;24.70;50.10;;;;;;5115851;28;20081;-68
2022/05/16 10:37:08;;;;;;;9.52;5.47;;;24.70;52.20;;;;;;5115526;28;20019;-69
2022/05/16 10:39:37;;;;;;;8.90;4.32;;;24.90;51.30;;;;;;5115443;28;20043;-69
2022/05/16 10:42:17;;;;;;;10.48;4.78;;;25.00;50.80;;;;;;5115461;28;20076;-68
2022/05/16 10:44:59;;;;;;;9.18;5.20;;;25.20;51.50;;;;;;5115443;28;20027;-69
2022/05/16 10:47:47;;;;;;;7.45;4.35;;;25.40;49.20;;;;;;5114360;28;20027;-68
2022/05/16 10:50:20;;;;;;;6.78;4.00;;;25.40;47.90;;;;;;5115342;28;20024;-69
2022/05/16 10:52:56;;;;;;;10.27;3.97;;;25.30;49.30;;;;;;5115301;28;20028;-68
2022/05/16 10:55:23;;;;;;;8.75;3.47;;;25.30;48.80;;;;;;5114168;28;20043;-68
2022/05/16 10:58:04;;;;;;;7.80;3.28;;;25.30;50.00;;;;;;5114123;28;20028;-68
2022/05/16 11:01:01;;;;;;;5.75;2.80;;;25.30;49.40;;;;;;5114947;28;20035;-68
2022/05/16 11:03:51;;;;;;;7.90;3.00;;;25.20;48.30;;;;;;5114378;28;20426;-68
2022/05/16 11:06:38;;;;;;;5.40;3.20;;;25.20;48.80;;;;;;5115018;28;20021;-68
2022/05/16 11:09:11;;;;;;;7.53;3.35;;;25.00;48.50;;;;;;5114945;28;20028;-69
2022/05/16 11:12:09;;;;;;;11.20;3.13;;;25.00;49.10;;;;;;5115098;28;20024;-68
2022/05/16 11:14:40;;;;;;;9.95;4.20;;;24.80;51.90;;;;;;5110780;28;20036;-68
2022/05/16 11:17:23;;;;;;;9.55;3.88;;;24.20;57.20;;;;;;5114982;28;20028;-68
2022/05/16 11:20:19;;;;;;;12.85;4.43;;;23.80;59.50;;;;;;5114781;28;20032;-68
2022/05/16 11:22:55;;;;;;;12.20;4.72;;;23.30;63.50;;;;;;5107818;28;20050;-68
2022/05/16 11:25:43;;;;;;;8.35;4.75;;;23.00;64.20;;;;;;5114658;28;20020;-68
2022/05/16 11:28:38;;;;;;;9.93;4.85;;;23.00;66.70;;;;;;5114640;28;20031;-68
2022/05/16 11:31:08;;;;;;;10.38;5.40;;;22.90;68.30;;;;;;5114443;28;20073;-68
2022/05/16 11:33:50;;;;;;;9.60;5.35;;;22.80;68.30;;;;;;5114496;28;20016;-69
2022/05/16 11:36:47;;;;;;;9.40;5.50;;;22.90;71.00;;;;;;5114490;28;20020;-69
2022/05/16 11:39:33;;;;;;;15.13;6.10;;;23.10;69.70;;;;;;5114300;28;20032;-69
2022/05/16 11:42:24;;;;;;;9.13;5.65;;;23.20;66.50;;;;;;5114530;28;20024;-69
2022/05/16 11:44:55;;;;;;;11.52;5.75;;;23.30;66.30;;;;;;5114419;28;20028;-69
2022/05/16 11:47:31;;;;;;;11.63;5.93;;;23.50;65.20;;;;;;5114197;28;20492;-68
2022/05/16 11:50:41;;;;;;;9.80;6.05;;;23.60;63.70;;;;;;5114319;28;20017;-68
2022/05/16 11:53:23;;;;;;;9.60;5.72;;;23.90;63.40;;;;;;5114253;28;20349;-68
2022/05/16 12:02:21;;;;;;;9.13;4.88;;;24.40;58.40;;;;;;5052006;28;20105;-69
2022/05/16 12:05:09;;;;;;;8.43;5.70;;;24.30;56.80;;;;;;5106864;28;20457;-69
2022/05/16 12:07:34;;;;;;;15.25;5.70;;;24.30;56.50;;;;;;5112896;28;20020;-69
2022/05/16 12:10:15;;;;;;;9.93;5.25;;;24.20;57.10;;;;;;5113791;28;20032;-69
2022/05/16 12:12:43;;;;;;;9.73;5.70;;;24.10;57.40;;;;;;5113800;28;20024;-69
2022/05/16 12:15:13;;;;;;;10.65;5.70;;;24.00;57.40;;;;;;5113780;28;20091;-69
2022/05/16 12:17:50;;;;;;;9.27;5.40;;;23.90;57.50;;;;;;5113733;28;20028;-69
2022/05/16 12:20:30;;;;;;;7.45;5.05;;;23.80;58.70;;;;;;5113808;28;20099;-69
2022/05/16 12:22:56;;;;;;;8.80;5.32;;;23.70;58.30;;;;;;5113523;28;20039;-68
2022/05/16 12:25:34;;;;;;;8.85;6.22;;;23.60;59.20;;;;;;5113720;28;20455;-69
2022/05/16 12:28:12;;;;;;;10.27;6.55;;;23.50;61.80;;;;;;5113552;28;20024;-69
2022/05/16 12:30:38;;;;;;;11.80;7.13;;;23.30;63.80;;;;;;5113541;28;20035;-69
2022/05/16 12:33:06;;;;;;;12.05;7.07;;;23.20;64.60;;;;;;5113503;28;20044;-69
2022/05/16 12:35:43;;;;;;;11.90;7.35;;;23.00;65.40;;;;;;5113504;28;20016;-69
2022/05/16 12:38:12;;;;;;;13.02;7.95;;;22.90;67.20;;;;;;5113467;28;20020;-69
2022/05/16 12:41:38;;;;;;;10.70;8.73;;;22.80;67.40;;;;;;5113273;28;20036;-69
2022/05/16 12:44:18;;;;;;;18.48;10.13;;;22.80;68.90;;;;;;5100606;28;20098;-69
2022/05/16 12:47:25;;;;;;;18.10;10.00;;;22.70;69.60;;;;;;5113575;28;20103;-69
2022/05/16 12:49:54;;;;;;;17.58;9.95;;;22.70;70.60;;;;;;5113473;28;20058;-69
2022/05/16 12:52:57;;;;;;;18.40;10.93;;;22.80;70.70;;;;;;5113264;28;20475;-69
2022/05/16 12:55:22;;;;;;;19.33;11.75;;;22.90;71.30;;;;;;5113285;28;20031;-69
2022/05/16 12:58:06;;;;;;;16.33;11.75;;;23.00;72.30;;;;;;5113276;28;20024;-69
2022/05/16 13:00:51;;;;;;;19.92;13.23;;;23.10;72.60;;;;;;5113335;28;20031;-69
2022/05/16 13:03:46;;;;;;;20.77;13.45;;;23.20;72.40;;;;;;5113432;28;20395;-68
2022/05/16 13:06:39;;;;;;;18.67;12.70;;;23.30;72.90;;;;;;5113281;28;20027;-69
2022/05/16 13:09:11;;;;;;;20.38;14.13;;;23.40;72.70;;;;;;5113181;28;20459;-69
2022/05/16 13:11:48;;;;;;;21.67;14.85;;;23.50;72.70;;;;;;5112208;28;20048;-69
2022/05/16 13:14:16;;;;;;;19.45;14.85;;;23.50;72.10;;;;;;5113158;28;20024;-69
2022/05/16 13:16:54;;;;;;;19.70;15.43;;;23.60;71.70;;;;;;5113103;28;20024;-69
2022/05/16 13:19:23;;;;;;;18.80;14.48;;;23.50;71.10;;;;;;5113006;28;20102;-69
2022/05/16 13:22:00;;;;;;;22.30;14.85;;;23.40;70.10;;;;;;5112856;28;20048;-69
2022/05/16 13:24:26;;;;;;;20.40;15.32;;;23.40;69.90;;;;;;5113082;28;20031;-70
2022/05/16 13:29:40;;;;;;;21.20;14.95;;;23.20;70.20;;;;;;5113082;28;20031;-69
2022/05/16 13:32:12;;;;;;;21.83;15.30;;;23.00;70.00;;;;;;5113114;28;20095;-70
2022/05/16 13:34:44;;;;;;;;;;;22.90;70.00;;;;;;5113374;28;20024;-70